Time;durP1;ratioP1;P1;durP2;ratioP2;P2;SDS_P1;SDS_P2;PMS_P1;PMS_P2;Temp;Humidity;BMP_temperature;BMP_pressure;BME280_temperature;BME280_humidity;BME280_pressure;Samples;Min_cycle;Max_cycle;Signal;HPM_P1;HPM_P2
2022/09/08 00:01:39;;;;;;;0.00;0.00;;;;;;;16.26;100.00;95988.34;5079070;28;20040;-75
2022/09/08 00:04:05;;;;;;;0.00;0.00;;;;;;;16.30;100.00;95985.88;5062361;28;20040;-76
2022/09/08 00:06:32;;;;;;;0.00;0.00;;;;;;;16.33;100.00;95982.56;5061495;28;20040;-76
2022/09/08 00:08:58;;;;;;;0.00;0.00;;;;;;;16.38;100.00;95969.00;5076527;28;20032;-75
2022/09/08 00:11:28;;;;;;;0.00;0.00;;;;;;;16.37;100.00;95976.28;5077430;28;20040;-75
2022/09/08 00:14:01;;;;;;;0.00;0.00;;;;;;;16.35;100.00;95983.09;5080684;28;20127;-75
2022/09/08 00:16:27;;;;;;;0.00;0.00;;;;;;;16.36;100.00;95973.91;5078759;28;20028;-75
2022/09/08 00:18:53;;;;;;;0.00;0.00;;;;;;;16.16;100.00;95970.44;5081468;28;20115;-75
2022/09/08 00:21:23;;;;;;;0.00;0.00;;;;;;;16.16;100.00;95969.63;5077816;28;20036;-75
2022/09/08 00:23:49;;;;;;;0.65;0.00;;;;;;;16.17;100.00;95952.34;5061594;28;20752;-75
2022/09/08 00:26:16;;;;;;;0.00;0.00;;;;;;;16.26;100.00;95952.44;5079746;28;20064;-75
2022/09/08 00:28:42;;;;;;;0.00;0.00;;;;;;;16.25;100.00;95946.25;5078246;28;20036;-76
2022/09/08 00:31:08;;;;;;;0.10;0.10;;;;;;;16.00;100.00;95949.38;5078364;28;20130;-76
2022/09/08 00:33:33;;;;;;;0.00;0.00;;;;;;;15.92;100.00;95947.38;5074855;28;20077;-76
2022/09/08 00:35:59;;;;;;;0.00;0.00;;;;;;;15.98;100.00;95948.88;5074187;28;20225;-76
2022/09/08 00:38:25;;;;;;;0.10;0.05;;;;;;;16.09;100.00;95934.91;5079435;28;20572;-76
2022/09/08 00:40:52;;;;;;;0.00;0.00;;;;;;;16.15;100.00;95932.94;5077731;28;20041;-76
2022/09/08 00:43:40;;;;;;;0.00;0.00;;;;;;;16.24;100.00;95928.47;5077990;28;20035;-76
2022/09/08 00:46:09;;;;;;;0.00;0.00;;;;;;;16.33;100.00;95926.66;5077937;28;20549;-76
2022/09/08 00:48:52;;;;;;;0.00;0.00;;;;;;;16.44;100.00;95911.91;5076215;28;20375;-76
2022/09/08 00:51:19;;;;;;;0.00;0.00;;;;;;;16.46;100.00;95908.91;5080697;28;20035;-76
2022/09/08 00:53:47;;;;;;;0.00;0.00;;;;;;;16.45;100.00;95912.69;5077888;28;20115;-76
2022/09/08 00:56:13;;;;;;;0.00;0.00;;;;;;;16.47;100.00;95909.69;5059915;28;20044;-76
2022/09/08 00:58:39;;;;;;;0.00;0.00;;;;;;;16.57;100.00;95909.50;5076749;28;20540;-73
2022/09/08 01:01:06;;;;;;;0.00;0.00;;;;;;;16.66;100.00;95902.31;5044217;28;20102;-73
2022/09/08 01:03:32;;;;;;;0.00;0.00;;;;;;;16.77;100.00;95897.53;5075736;28;20033;-73
2022/09/08 01:05:57;;;;;;;0.00;0.00;;;;;;;16.93;100.00;95907.72;5078392;28;20047;-73
2022/09/08 01:14:39;;;;;;;;;;;;;;;17.10;100.00;95919.81;5079939;28;20042;-73
2022/09/08 01:17:16;;;;;;;0.00;0.00;;;;;;;16.82;100.00;95941.47;5076869;28;20390;-73
2022/09/08 01:19:46;;;;;;;0.00;0.00;;;;;;;16.71;100.00;95938.16;5073921;28;20146;-73
2022/09/08 01:22:26;;;;;;;0.00;0.00;;;;;;;16.76;100.00;95944.56;5078405;28;20395;-73
2022/09/08 01:25:27;;;;;;;0.00;0.00;;;;;;;16.47;100.00;95963.69;5078943;28;20657;-74
2022/09/08 01:28:25;;;;;;;0.00;0.00;;;;;;;16.26;100.00;95955.94;5076190;28;20086;-73
2022/09/08 01:30:52;;;;;;;0.00;0.00;;;;;;;16.14;100.00;95963.72;5070726;28;20067;-74
2022/09/08 01:33:19;;;;;;;0.00;0.00;;;;;;;16.14;100.00;95958.34;5077861;28;20614;-73
2022/09/08 01:35:45;;;;;;;0.00;0.00;;;;;;;16.11;100.00;95967.03;5061956;28;20406;-73
2022/09/08 01:38:11;;;;;;;0.00;0.00;;;;;;;16.15;100.00;95966.13;5077416;28;20036;-73
2022/09/08 01:40:40;;;;;;;0.00;0.00;;;;;;;16.16;100.00;95953.44;5077784;28;20113;-74
2022/09/08 01:43:09;;;;;;;0.08;0.08;;;;;;;16.20;100.00;95956.34;5078417;28;20570;-73
2022/09/08 01:45:35;;;;;;;0.00;0.00;;;;;;;16.20;100.00;95965.25;5075823;28;20765;-73
2022/09/08 01:48:01;;;;;;;0.00;0.00;;;;;;;16.21;100.00;95953.34;5061757;28;20114;-73
2022/09/08 01:50:27;;;;;;;0.00;0.00;;;;;;;16.27;100.00;95937.88;5075433;28;20044;-74
2022/09/08 01:52:52;;;;;;;0.00;0.00;;;;;;;16.42;100.00;95943.81;5074049;28;20036;-73
2022/09/08 01:55:18;;;;;;;0.00;0.00;;;;;;;16.47;100.00;95942.09;5077372;28;20078;-74
2022/09/08 01:57:43;;;;;;;0.00;0.00;;;;;;;16.37;100.00;95930.38;5075780;28;20429;-73
2022/09/08 02:00:10;;;;;;;0.00;0.00;;;;;;;16.25;100.00;95946.25;5078387;28;20656;-73
2022/09/08 02:02:36;;;;;;;0.00;0.00;;;;;;;16.11;100.00;95942.75;5056974;28;20145;-73
2022/09/08 02:05:01;;;;;;;0.00;0.00;;;;;;;16.03;100.00;95940.69;5076383;28;20086;-73
2022/09/08 02:07:27;;;;;;;0.00;0.00;;;;;;;15.87;100.00;95949.06;5075839;28;20119;-74
2022/09/08 02:09:53;;;;;;;0.00;0.00;;;;;;;15.68;100.00;95959.06;5075721;28;20571;-73
2022/09/08 02:12:19;;;;;;;0.00;0.00;;;;;;;15.57;100.00;95947.59;5077209;28;20481;-74
2022/09/08 02:14:45;;;;;;;0.00;0.00;;;;;;;15.46;100.00;95945.31;5076640;28;20054;-74
2022/09/08 02:17:10;;;;;;;0.00;0.00;;;;;;;15.45;100.00;95951.81;5076460;28;20398;-74
2022/09/08 02:19:36;;;;;;;0.00;0.00;;;;;;;15.33;100.00;95928.81;5073957;28;20032;-75
2022/09/08 02:22:01;;;;;;;0.00;0.00;;;;;;;15.39;100.00;95948.38;5077214;28;20471;-74
2022/09/08 02:24:27;;;;;;;0.00;0.00;;;;;;;15.31;100.00;95944.44;5078387;28;20060;-75
2022/09/08 02:26:52;;;;;;;0.05;0.00;;;;;;;15.36;100.00;95948.16;5078384;28;20038;-74
2022/09/08 02:29:17;;;;;;;0.00;0.00;;;;;;;15.33;100.00;95947.66;5076063;28;20040;-74
2022/09/08 02:31:43;;;;;;;0.00;0.00;;;;;;;15.29;100.00;95952.03;5075255;28;20503;-74
2022/09/08 02:34:09;;;;;;;0.00;0.00;;;;;;;15.22;100.00;95953.47;5077835;28;20691;-75
2022/09/08 02:36:34;;;;;;;0.00;0.00;;;;;;;15.26;100.00;95957.22;5080809;28;20047;-74
2022/09/08 02:39:00;;;;;;;0.00;0.00;;;;;;;15.10;100.00;95945.81;5080233;28;20530;-74
2022/09/08 02:41:27;;;;;;;0.00;0.00;;;;;;;15.00;100.00;95952.13;5078291;28;20123;-75
2022/09/08 02:43:53;;;;;;;0.00;0.00;;;;;;;15.07;100.00;95951.78;5079395;28;20159;-74
2022/09/08 02:46:19;;;;;;;0.00;0.00;;;;;;;14.98;100.00;95961.59;5074952;28;20378;-74
2022/09/08 02:48:45;;;;;;;0.00;0.00;;;;;;;14.90;100.00;95957.63;5072665;28;20521;-74
2022/09/08 02:51:13;;;;;;;0.00;0.00;;;;;;;14.88;100.00;95964.41;5060532;28;20102;-74
2022/09/08 02:53:40;;;;;;;0.00;0.00;;;;;;;14.88;100.00;95964.41;5078764;28;20118;-74
2022/09/08 02:56:07;;;;;;;0.00;0.00;;;;;;;14.83;100.00;95957.19;5062422;28;20176;-74
2022/09/08 02:58:33;;;;;;;0.00;0.00;;;;;;;14.89;100.00;95964.13;5077648;28;20116;-74
2022/09/08 03:00:58;;;;;;;0.00;0.00;;;;;;;14.85;100.00;95957.69;5058276;28;20290;-74
2022/09/08 03:03:25;;;;;;;0.00;0.00;;;;;;;14.81;100.00;95969.34;5077572;28;20470;-74
2022/09/08 03:05:51;;;;;;;0.00;0.00;;;;;;;14.70;100.00;95965.94;5076098;28;20040;-74
2022/09/08 03:08:17;;;;;;;0.00;0.00;;;;;;;14.65;100.00;95972.19;5077653;28;20037;-74
2022/09/08 03:10:44;;;;;;;0.10;0.00;;;;;;;14.63;100.00;95963.63;5058642;28;20036;-75
2022/09/08 03:13:10;;;;;;;0.08;0.00;;;;;;;14.56;100.00;95971.22;5074073;28;20481;-75
2022/09/08 03:15:37;;;;;;;0.10;0.10;;;;;;;14.56;100.00;95962.34;5077047;28;20028;-75
2022/09/08 03:18:04;;;;;;;0.10;0.10;;;;;;;14.57;100.00;95967.44;5061225;28;20048;-75
2022/09/08 03:20:31;;;;;;;0.08;0.08;;;;;;;14.52;100.00;95959.41;5074701;28;20097;-75
2022/09/08 03:22:58;;;;;;;0.00;0.00;;;;;;;14.57;100.00;95955.88;5078166;28;20043;-75
2022/09/08 03:25:24;;;;;;;0.03;0.03;;;;;;;14.51;100.00;95957.00;5074154;28;20242;-75
2022/09/08 03:27:50;;;;;;;0.00;0.00;;;;;;;14.52;100.00;95970.19;5076019;28;20028;-75
2022/09/08 03:30:17;;;;;;;0.00;0.00;;;;;;;14.52;100.00;95964.00;5074071;28;20044;-74
2022/09/08 03:32:44;;;;;;;0.00;0.00;;;;;;;14.50;100.00;95972.38;5076090;28;20446;-75
2022/09/08 03:35:12;;;;;;;0.00;0.00;;;;;;;14.42;100.00;95971.06;5074591;28;20055;-74
2022/09/08 03:37:40;;;;;;;0.00;0.00;;;;;;;14.47;100.00;95970.22;5075817;28;20125;-75
2022/09/08 03:40:09;;;;;;;0.03;0.03;;;;;;;14.41;100.00;95966.78;5074406;28;20035;-74
2022/09/08 03:42:36;;;;;;;0.00;0.00;;;;;;;14.48;100.00;95969.97;5074699;28;20047;-74
2022/09/08 03:45:09;;;;;;;0.03;0.03;;;;;;;14.55;100.00;95977.69;5077337;28;20044;-74
2022/09/08 03:47:35;;;;;;;0.10;0.10;;;;;;;14.57;100.00;95969.34;5055071;28;20042;-74
2022/09/08 03:50:01;;;;;;;0.00;0.00;;;;;;;14.58;100.00;95962.84;5057356;28;20052;-74
2022/09/08 03:52:26;;;;;;;0.10;0.00;;;;;;;14.59;100.00;95959.88;5073083;28;20411;-75
2022/09/08 03:54:52;;;;;;;0.00;0.00;;;;;;;14.59;100.00;95959.06;5077414;28;20044;-74
2022/09/08 03:57:27;;;;;;;0.00;0.00;;;;;;;14.62;100.00;95955.81;5056882;28;20032;-75
2022/09/08 03:59:56;;;;;;;0.10;0.10;;;;;;;14.61;100.00;95957.69;5058347;28;20744;-75
2022/09/08 04:02:21;;;;;;;0.00;0.00;;;;;;;14.63;100.00;95944.78;5072189;28;20028;-74
2022/09/08 04:04:52;;;;;;;0.10;0.10;;;;;;;14.69;100.00;95934.72;5076051;28;20321;-74
2022/09/08 04:07:19;;;;;;;0.00;0.00;;;;;;;14.71;100.00;95930.66;5076186;28;20068;-75
2022/09/08 04:09:44;;;;;;;0.00;0.00;;;;;;;14.74;100.00;95930.09;5076859;28;20646;-74
2022/09/08 04:12:10;;;;;;;0.00;0.00;;;;;;;14.68;100.00;95925.84;5077873;28;20175;-75
2022/09/08 04:14:36;;;;;;;0.00;0.00;;;;;;;14.73;100.00;95919.59;5078389;28;20036;-75
2022/09/08 04:17:02;;;;;;;0.00;0.00;;;;;;;14.86;100.00;95923.47;5077387;28;20063;-75
2022/09/08 04:19:28;;;;;;;0.10;0.10;;;;;;;14.91;100.00;95915.34;5077863;28;20119;-74
2022/09/08 04:21:54;;;;;;;0.00;0.00;;;;;;;14.95;100.00;95919.88;5062831;28;20032;-74
2022/09/08 04:24:19;;;;;;;0.00;0.00;;;;;;;14.90;100.00;95911.84;5084471;28;20580;-74
2022/09/08 04:26:48;;;;;;;0.00;0.00;;;;;;;14.87;100.00;95914.34;5080112;28;20048;-74
2022/09/08 04:29:15;;;;;;;0.10;0.10;;;;;;;14.89;100.00;95907.56;5082152;28;20132;-75
2022/09/08 04:31:42;;;;;;;0.10;0.10;;;;;;;14.84;100.00;95912.19;5077134;28;20047;-74
2022/09/08 04:34:08;;;;;;;0.08;0.08;;;;;;;14.88;100.00;95910.53;5078985;28;20115;-74
2022/09/08 04:36:34;;;;;;;0.00;0.00;;;;;;;14.95;100.00;95913.69;5061024;27;20057;-74
2022/09/08 04:39:00;;;;;;;0.00;0.00;;;;;;;14.95;100.00;95911.00;5043165;28;20329;-75
2022/09/08 04:41:27;;;;;;;0.10;0.10;;;;;;;14.89;100.00;95909.44;5038349;28;20508;-75
2022/09/08 04:43:54;;;;;;;0.00;0.00;;;;;;;14.94;100.00;95922.84;5062272;28;20055;-74
2022/09/08 04:46:21;;;;;;;0.00;0.00;;;;;;;14.91;100.00;95918.03;5061187;28;20041;-74
2022/09/08 04:48:48;;;;;;;0.00;0.00;;;;;;;14.95;100.00;95924.47;5060643;28;20066;-75
2022/09/08 04:51:16;;;;;;;0.00;0.00;;;;;;;14.84;100.00;95909.50;5064879;28;20475;-74
2022/09/08 04:53:42;;;;;;;0.00;0.00;;;;;;;14.83;100.00;95911.41;5060081;28;20056;-74
2022/09/08 04:56:09;;;;;;;0.00;0.00;;;;;;;14.90;100.00;95911.06;5057588;28;20041;-76
2022/09/08 04:58:37;;;;;;;0.00;0.00;;;;;;;15.01;100.00;95913.31;5057175;28;20047;-76
2022/09/08 05:01:07;;;;;;;0.05;0.00;;;;;;;15.08;100.00;95915.66;5042642;28;20119;-76
2022/09/08 05:03:33;;;;;;;0.00;0.00;;;;;;;15.17;100.00;95911.22;5056779;28;20375;-75
2022/09/08 05:06:08;;;;;;;0.00;0.00;;;;;;;15.15;100.00;95909.91;5058596;28;20544;-75
2022/09/08 05:08:36;;;;;;;0.03;0.03;;;;;;;15.16;100.00;95904.22;5060691;28;20115;-75
2022/09/08 05:11:02;;;;;;;0.00;0.00;;;;;;;15.10;100.00;95905.41;5061875;28;20093;-75
2022/09/08 05:13:28;;;;;;;0.05;0.05;;;;;;;15.07;100.00;95914.06;5058327;28;20076;-75
2022/09/08 05:16:12;;;;;;;0.10;0.10;;;;;;;15.17;100.00;95915.81;5060598;28;20032;-74
2022/09/08 05:18:38;;;;;;;0.00;0.00;;;;;;;15.18;100.00;95912.84;5055973;28;20059;-75
2022/09/08 05:21:05;;;;;;;0.00;0.00;;;;;;;14.95;100.00;95916.38;5038893;28;20473;-75
2022/09/08 05:23:31;;;;;;;0.00;0.00;;;;;;;14.90;100.00;95921.81;5039680;28;20049;-74
2022/09/08 05:25:59;;;;;;;0.00;0.00;;;;;;;14.87;100.00;95925.09;5063734;28;20332;-75
2022/09/08 05:28:27;;;;;;;0.00;0.00;;;;;;;14.91;100.00;95924.22;5038151;28;20047;-75
2022/09/08 05:30:52;;;;;;;0.00;0.00;;;;;;;14.95;100.00;95921.78;5060078;28;20044;-74
2022/09/08 05:33:19;;;;;;;0.00;0.00;;;;;;;15.02;100.00;95930.31;5055725;28;20107;-74
2022/09/08 05:35:48;;;;;;;0.08;0.08;;;;;;;14.99;100.00;95912.00;5068744;28;20075;-74
2022/09/08 05:38:14;;;;;;;0.00;0.00;;;;;;;15.00;100.00;95922.47;5080699;28;20507;-75
2022/09/08 05:40:39;;;;;;;0.00;0.00;;;;;;;15.15;100.00;95913.41;5082128;28;20308;-74
2022/09/08 05:43:05;;;;;;;0.00;0.00;;;;;;;15.23;100.00;95914.66;5081004;28;20035;-75
2022/09/08 05:45:31;;;;;;;0.00;0.00;;;;;;;15.25;100.00;95913.28;5079779;28;20052;-74
2022/09/08 05:47:59;;;;;;;0.00;0.00;;;;;;;15.15;100.00;95913.41;5079958;28;20344;-74
2022/09/08 05:50:25;;;;;;;0.10;0.10;;;;;;;15.20;100.00;95907.97;5077111;28;20035;-75
2022/09/08 05:52:50;;;;;;;0.03;0.03;;;;;;;15.17;100.00;95903.13;5079870;28;20063;-75
2022/09/08 05:55:17;;;;;;;0.00;0.00;;;;;;;15.26;100.00;95906.00;5079479;28;20060;-74
2022/09/08 05:57:43;;;;;;;0.00;0.00;;;;;;;15.25;100.00;95907.91;5078438;28;20035;-75
2022/09/08 06:00:10;;;;;;;0.00;0.00;;;;;;;15.36;100.00;95910.44;5077317;28;20453;-75
2022/09/08 06:02:36;;;;;;;0.00;0.00;;;;;;;15.38;100.00;95902.84;5076348;28;20538;-75
2022/09/08 06:05:02;;;;;;;0.00;0.00;;;;;;;15.36;100.00;95899.66;5058592;28;20496;-75
2022/09/08 06:07:28;;;;;;;0.00;0.00;;;;;;;15.43;100.00;95908.19;5077263;28;20040;-75
2022/09/08 06:09:53;;;;;;;0.00;0.00;;;;;;;15.24;100.00;95903.56;5076994;28;20038;-75
2022/09/08 06:12:19;;;;;;;0.00;0.00;;;;;;;15.33;100.00;95907.25;5059862;28;20049;-75
2022/09/08 06:14:45;;;;;;;0.00;0.00;;;;;;;15.31;100.00;95895.94;5080167;28;20385;-75
2022/09/08 06:17:11;;;;;;;0.00;0.00;;;;;;;15.35;100.00;95906.13;5080637;28;20047;-75
2022/09/08 06:19:37;;;;;;;0.00;0.00;;;;;;;15.48;100.00;95905.38;5081297;28;20033;-75
2022/09/08 06:22:02;;;;;;;0.00;0.00;;;;;;;15.45;100.00;95893.31;5079597;28;20415;-75
2022/09/08 06:24:28;;;;;;;0.00;0.00;;;;;;;15.30;100.00;95898.91;5078399;28;20038;-75
2022/09/08 06:27:07;;;;;;;0.00;0.00;;;;;;;15.39;100.00;95896.34;5081012;28;20056;-75
2022/09/08 06:29:54;;;;;;;0.00;0.00;;;;;;;15.43;100.00;95900.09;5078311;28;20048;-75
2022/09/08 06:32:36;;;;;;;0.10;0.10;;;;;;;15.12;100.00;95921.28;5075498;28;20040;-75
2022/09/08 06:35:19;;;;;;;0.00;0.00;;;;;;;14.99;100.00;95926.28;5078728;28;20381;-75
2022/09/08 06:37:57;;;;;;;0.00;0.00;;;;;;;15.05;100.00;95929.72;5076568;28;20036;-76
2022/09/08 06:40:45;;;;;;;0.00;0.00;;;;;;;15.01;100.00;95923.28;5076961;28;20040;-76
2022/09/08 06:43:12;;;;;;;0.00;0.00;;;;;;;15.06;100.00;95925.94;5078984;28;20040;-75
2022/09/08 06:45:48;;;;;;;0.00;0.00;;;;;;;15.15;100.00;95918.00;5080371;28;20046;-76
2022/09/08 06:48:32;;;;;;;0.00;0.00;;;;;;;15.04;100.00;95928.13;5077045;28;20035;-75
2022/09/08 06:51:12;;;;;;;0.00;0.00;;;;;;;15.09;100.00;95946.09;5076874;28;20554;-75
2022/09/08 06:53:43;;;;;;;0.00;0.00;;;;;;;14.90;100.00;95932.59;5078662;28;20075;-75
2022/09/08 06:56:51;;;;;;;0.00;0.00;;;;;;;14.88;100.00;95937.47;5077195;28;20502;-75
2022/09/08 06:59:32;;;;;;;0.00;0.00;;;;;;;14.83;100.00;95943.72;5021404;28;20160;-75
2022/09/08 07:02:07;;;;;;;;;;;;;;;14.94;100.00;95944.38;5058046;28;20364;-76
2022/09/08 07:05:24;;;;;;;0.00;0.00;;;;;;;14.97;100.00;95941.13;5059216;28;20585;-76
2022/09/08 07:08:12;;;;;;;0.00;0.00;;;;;;;14.83;100.00;95946.41;5045829;28;20059;-76
2022/09/08 07:10:49;;;;;;;0.00;0.00;;;;;;;14.94;100.00;95937.13;5080584;28;20032;-76
2022/09/08 07:13:23;;;;;;;0.00;0.00;;;;;;;14.90;100.00;95935.28;5077415;28;20560;-75
2022/09/08 07:15:54;;;;;;;0.08;0.00;;;;;;;15.18;100.00;95939.78;5077247;28;20046;-75
2022/09/08 07:18:21;;;;;;;0.00;0.00;;;;;;;15.13;100.00;95942.53;5075586;28;20050;-75
2022/09/08 07:20:47;;;;;;;0.03;0.03;;;;;;;15.32;100.00;95931.75;5076366;28;20374;-76
2022/09/08 07:23:19;;;;;;;0.00;0.00;;;;;;;15.37;100.00;95936.28;5078507;28;20028;-76
2022/09/08 07:26:20;;;;;;;0.00;0.00;;;;;;;15.48;100.00;95941.22;5077913;28;20040;-74
2022/09/08 07:28:49;;;;;;;0.00;0.00;;;;;;;15.44;100.00;95934.03;5025330;28;20051;-75
2022/09/08 07:31:23;;;;;;;0.08;0.00;;;;;;;15.65;100.00;95938.06;5075529;28;20040;-75
2022/09/08 07:33:57;;;;;;;0.10;0.10;;;;;;;15.67;100.00;95930.47;5078218;28;20507;-75
2022/09/08 07:36:47;;;;;;;0.00;0.00;;;;;;;15.65;100.00;95932.69;5078287;28;20087;-75
2022/09/08 07:39:21;;;;;;;0.10;0.10;;;;;;;15.81;100.00;95925.94;5075286;28;20051;-75
2022/09/08 07:41:49;;;;;;;0.00;0.00;;;;;;;15.92;100.00;95934.66;5074841;28;20134;-75
2022/09/08 07:44:17;;;;;;;0.00;0.00;;;;;;;15.95;100.00;95925.97;5075275;28;20040;-74
2022/09/08 07:46:53;;;;;;;0.00;0.00;;;;;;;16.08;100.00;95930.63;5076357;28;20067;-75
2022/09/08 07:49:18;;;;;;;0.00;0.00;;;;;;;16.24;100.00;95920.34;5079329;28;20035;-75
2022/09/08 07:52:26;;;;;;;0.10;0.10;;;;;;;16.23;100.00;95924.16;5076975;28;20114;-76
2022/09/08 07:55:29;;;;;;;0.10;0.10;;;;;;;16.41;100.00;95935.97;5053564;28;20055;-75
2022/09/08 07:58:16;;;;;;;0.10;0.10;;;;;;;16.50;100.00;95925.28;5024505;28;20430;-76
2022/09/08 08:00:53;;;;;;;0.00;0.00;;;;;;;16.75;100.00;95919.44;5081417;28;20124;-76
2022/09/08 08:03:39;;;;;;;0.00;0.00;;;;;;;16.59;100.00;95923.53;5082092;28;20486;-77
2022/09/08 08:06:16;;;;;;;0.00;0.00;;;;;;;16.60;100.00;95927.81;5047722;28;20129;-76
2022/09/08 08:08:55;;;;;;;0.08;0.08;;;;;;;16.64;100.00;95932.31;5082593;28;20038;-76
2022/09/08 08:11:51;;;;;;;0.10;0.10;;;;;;;16.77;100.00;95933.44;5083704;28;20047;-75
2022/09/08 08:14:45;;;;;;;0.10;0.10;;;;;;;16.93;100.00;95929.34;5050232;28;20059;-76
2022/09/08 08:17:14;;;;;;;0.10;0.10;;;;;;;17.01;100.00;95935.16;5080314;28;20040;-75
2022/09/08 08:19:51;;;;;;;0.00;0.00;;;;;;;17.09;100.00;95929.03;5080700;28;20043;-77
2022/09/08 08:22:32;;;;;;;0.10;0.10;;;;;;;17.06;100.00;95943.97;5082139;28;20788;-76
2022/09/08 08:25:01;;;;;;;0.00;0.00;;;;;;;16.99;100.00;95944.34;5065388;28;20325;-76
2022/09/08 08:27:48;;;;;;;0.08;0.08;;;;;;;17.19;100.00;95939.63;5084106;28;20028;-76
2022/09/08 08:30:22;;;;;;;0.08;0.08;;;;;;;17.10;100.00;95942.22;5077683;28;20052;-76
2022/09/08 08:33:24;;;;;;;0.00;0.00;;;;;;;16.82;100.00;95957.69;5050370;28;20487;-75
2022/09/08 08:35:52;;;;;;;0.00;0.00;;;;;;;16.75;100.00;95959.97;5049837;28;20122;-76
2022/09/08 08:38:24;;;;;;;0.00;0.00;;;;;;;16.83;100.00;95959.28;5077287;28;20127;-76
2022/09/08 08:40:56;;;;;;;0.10;0.10;;;;;;;17.09;100.00;95958.75;5080137;28;20252;-75
2022/09/08 08:43:45;;;;;;;0.10;0.10;;;;;;;17.12;100.00;95958.97;5076377;28;20126;-75
2022/09/08 08:46:28;;;;;;;0.10;0.10;;;;;;;17.29;100.00;95957.56;5064204;28;20710;-76
2022/09/08 08:49:14;;;;;;;0.10;0.10;;;;;;;17.51;100.00;95955.69;5082374;28;20028;-76
2022/09/08 08:51:48;;;;;;;0.10;0.10;;;;;;;17.07;100.00;95966.38;5079291;28;20032;-76
2022/09/08 08:54:25;;;;;;;0.00;0.00;;;;;;;17.19;100.00;95962.03;5081229;28;20135;-76
2022/09/08 08:56:58;;;;;;;0.10;0.10;;;;;;;17.27;100.00;95963.22;5079059;28;20039;-76
2022/09/08 09:00:18;;;;;;;0.00;0.00;;;;;;;17.24;100.00;95972.75;5079027;28;20035;-76
2022/09/08 09:03:14;;;;;;;0.00;0.00;;;;;;;17.03;100.00;95981.59;4978318;28;20046;-76
2022/09/08 09:05:59;;;;;;;0.05;0.03;;;;;;;16.88;100.00;95969.97;5074638;28;20039;-76
2022/09/08 09:08:27;;;;;;;0.10;0.10;;;;;;;17.08;100.00;95965.28;5077112;28;20525;-76
2022/09/08 09:11:03;;;;;;;0.00;0.00;;;;;;;16.81;100.00;95974.16;5079929;28;20044;-76
2022/09/08 09:14:09;;;;;;;0.00;0.00;;;;;;;16.95;100.00;95975.78;5079962;28;20036;-76
2022/09/08 09:16:37;;;;;;;0.00;0.00;;;;;;;17.46;100.00;95966.63;5077052;28;20035;-76
2022/09/08 09:19:21;;;;;;;0.10;0.10;;;;;;;17.94;100.00;95959.88;5065337;28;20040;-76
2022/09/08 09:21:53;;;;;;;0.10;0.10;;;;;;;18.55;100.00;95961.88;5060686;28;20063;-76
2022/09/08 09:24:56;;;;;;;0.10;0.10;;;;;;;18.25;100.00;95952.63;5076973;28;20098;-76
2022/09/08 09:27:41;;;;;;;0.10;0.10;;;;;;;18.57;100.00;95956.13;5057616;28;20520;-76
2022/09/08 09:30:24;;;;;;;0.10;0.10;;;;;;;18.68;100.00;95954.81;5062236;28;20364;-76
2022/09/08 09:33:09;;;;;;;0.00;0.00;;;;;;;19.02;100.00;95954.13;5074360;28;20512;-75
2022/09/08 09:35:53;;;;;;;0.10;0.10;;;;;;;19.20;100.00;95955.75;5076240;28;20463;-75
2022/09/08 09:38:46;;;;;;;0.00;0.00;;;;;;;18.77;100.00;95949.41;5079267;28;20501;-76
2022/09/08 09:41:30;;;;;;;0.08;0.00;;;;;;;18.36;100.00;95962.09;5078393;28;20521;-76
2022/09/08 09:44:29;;;;;;;0.10;0.10;;;;;;;18.51;100.00;95965.50;5060346;28;20465;-76
2022/09/08 09:47:25;;;;;;;0.10;0.10;;;;;;;19.49;100.00;95951.69;5078481;28;20050;-76
2022/09/08 09:50:03;;;;;;;0.00;0.00;;;;;;;19.02;100.00;95956.03;5079817;28;20035;-76
2022/09/08 09:52:55;;;;;;;0.00;0.00;;;;;;;18.70;100.00;95965.31;5080082;28;20111;-76
2022/09/08 09:55:58;;;;;;;0.00;0.00;;;;;;;18.46;100.00;95976.50;5080792;28;20036;-76
2022/09/08 09:58:26;;;;;;;0.10;0.10;;;;;;;18.64;100.00;95960.00;5077596;28;20082;-76
2022/09/08 10:01:06;;;;;;;0.10;0.10;;;;;;;18.46;100.00;95957.53;5078210;28;20036;-76
2022/09/08 10:03:57;;;;;;;0.10;0.10;;;;;;;18.65;100.00;95950.78;5079294;28;20487;-75
2022/09/08 10:06:26;;;;;;;0.10;0.10;;;;;;;18.87;100.00;95954.56;5080212;28;20119;-75
2022/09/08 10:09:22;;;;;;;0.10;0.10;;;;;;;19.41;100.00;95966.03;5073406;28;20036;-75
2022/09/08 10:12:08;;;;;;;0.10;0.10;;;;;;;19.55;100.00;95953.13;5060445;28;20606;-75
2022/09/08 10:15:05;;;;;;;0.10;0.10;;;;;;;19.21;100.00;95946.50;5079030;28;20075;-75
2022/09/08 10:18:02;;;;;;;0.10;0.10;;;;;;;19.16;100.00;95940.44;5077793;28;20039;-75
2022/09/08 10:20:48;;;;;;;0.10;0.10;;;;;;;19.27;100.00;95938.22;5072876;28;20142;-76
2022/09/08 10:23:56;;;;;;;0.08;0.08;;;;;;;19.75;100.00;95940.88;5075977;28;20052;-76
2022/09/08 10:26:43;;;;;;;0.10;0.10;;;;;;;20.64;100.00;95947.47;5030592;28;20044;-76
2022/09/08 10:29:37;;;;;;;0.13;0.13;;;;;;;21.34;100.00;95937.91;5076135;28;20040;-76
2022/09/08 10:32:45;;;;;;;0.00;0.00;;;;;;;20.68;100.00;95947.59;5073207;28;20052;-76
2022/09/08 10:35:25;;;;;;;0.00;0.00;;;;;;;19.71;100.00;95951.56;5072470;28;20044;-76
2022/09/08 10:38:19;;;;;;;0.00;0.00;;;;;;;19.17;100.00;95956.41;4360604;28;10000478;-75
2022/09/08 10:41:06;;;;;;;0.10;0.10;;;;;;;21.22;100.00;95945.13;5038343;27;20112;-76
2022/09/08 10:43:38;;;;;;;0.10;0.10;;;;;;;25.30;89.35;95938.63;5078479;28;20082;-76
2022/09/08 10:46:31;;;;;;;0.10;0.10;;;;;;;25.44;85.34;95933.44;5074281;28;20044;-77
2022/09/08 10:49:18;;;;;;;0.00;0.00;;;;;;;24.19;90.03;95930.25;5074756;28;20044;-76
2022/09/08 10:52:21;;;;;;;0.08;0.08;;;;;;;25.02;85.97;95939.50;5051868;28;20042;-76
2022/09/08 10:55:27;;;;;;;0.00;0.00;;;;;;;23.97;91.16;95934.34;5075828;28;20067;-76
2022/09/08 10:58:35;;;;;;;0.10;0.10;;;;;;;27.86;67.07;95935.22;5056758;28;20036;-76
2022/09/08 11:01:41;;;;;;;0.00;0.00;;;;;;;23.62;90.60;95928.63;5074719;28;20429;-76
2022/09/08 11:04:28;;;;;;;0.00;0.00;;;;;;;22.22;100.00;95944.28;5073692;28;20047;-76
2022/09/08 11:07:21;;;;;;;0.00;0.00;;;;;;;21.23;100.00;95952.16;5073161;28;20054;-76
2022/09/08 11:10:20;;;;;;;0.15;0.15;;;;;;;27.49;71.10;95932.28;5074576;28;20191;-76
2022/09/08 11:13:12;;;;;;;0.10;0.10;;;;;;;31.58;46.29;95928.84;5076952;28;20043;-77
2022/09/08 11:15:43;;;;;;;0.10;0.10;;;;;;;30.46;50.34;95939.38;5079432;28;20118;-77
2022/09/08 11:18:36;;;;;;;0.10;0.10;;;;;;;32.71;39.23;95937.19;5057301;28;20056;-77
2022/09/08 11:21:07;;;;;;;0.10;0.10;;;;;;;30.13;46.02;95927.44;5076742;28;20050;-77
2022/09/08 11:24:14;;;;;;;0.15;0.15;;;;;;;30.06;47.37;95935.66;5074177;28;20047;-77
2022/09/08 11:26:57;;;;;;;0.10;0.10;;;;;;;34.30;35.62;95942.53;5071442;28;20086;-77
2022/09/08 11:29:33;;;;;;;0.10;0.10;;;;;;;35.22;31.17;95925.78;5074060;28;20051;-77
2022/09/08 11:32:18;;;;;;;0.10;0.10;;;;;;;36.82;29.56;95936.69;5078162;28;20130;-77
2022/09/08 11:35:06;;;;;;;0.00;0.00;;;;;;;30.74;37.13;95949.72;5078856;28;20051;-77
2022/09/08 11:37:49;;;;;;;0.00;0.00;;;;;;;27.39;49.54;95941.97;5047824;28;20146;-77
2022/09/08 11:41:13;;;;;;;0.10;0.10;;;;;;;32.91;35.62;95938.25;5061848;28;20583;-77
2022/09/08 11:43:57;;;;;;;0.10;0.10;;;;;;;36.44;29.35;95933.53;4976421;28;20046;-77
2022/09/08 11:46:47;;;;;;;0.10;0.10;;;;;;;34.70;31.31;95937.25;5069366;28;20055;-78
2022/09/08 11:49:22;;;;;;;0.00;0.00;;;;;;;28.81;40.48;95954.00;5077653;28;20060;-77
2022/09/08 11:52:35;;;;;;;0.20;0.20;;;;;;;25.11;68.06;95956.56;5065202;28;20450;-77
2022/09/08 11:55:15;;;;;;;0.10;0.10;;;;;;;29.47;46.86;95951.44;5029679;28;20307;-77
2022/09/08 11:57:58;;;;;;;0.10;0.10;;;;;;;32.93;35.95;95944.19;5077173;28;20088;-77
2022/09/08 12:01:01;;;;;;;0.00;0.00;;;;;;;32.69;34.67;95936.81;5080685;28;20390;-77
2022/09/08 12:03:45;;;;;;;0.00;0.00;;;;;;;32.56;34.90;95944.78;5084121;28;20048;-78
2022/09/08 12:06:25;;;;;;;0.10;0.10;;;;;;;30.21;40.27;95942.06;5081134;28;20498;-78
2022/09/08 12:09:09;;;;;;;0.10;0.10;;;;;;;34.46;31.31;95930.84;5067497;28;20040;-77
2022/09/08 12:11:51;;;;;;;0.10;0.10;;;;;;;31.40;36.32;95941.13;5078815;28;20286;-77